sensor_id;sensor_type;location;lat;lon;timestamp;P1;durP1;ratioP1;P2;durP2;ratioP2
51489;SDS011;57752;53.574;9.736;2023-09-07T00:02:11;19.25;;;12.73;;
51489;SDS011;57752;53.574;9.736;2023-09-07T00:07:11;22.13;;;13.43;;
51489;SDS011;57752;53.574;9.736;2023-09-07T00:12:12;23.00;;;15.23;;
51489;SDS011;57752;53.574;9.736;2023-09-07T00:17:12;24.00;;;15.90;;
51489;SDS011;57752;53.574;9.736;2023-09-07T00:22:12;23.15;;;15.05;;
51489;SDS011;57752;53.574;9.736;2023-09-07T00:27:12;19.33;;;12.20;;
51489;SDS011;57752;53.574;9.736;2023-09-07T00:32:12;19.42;;;12.93;;
51489;SDS011;57752;53.574;9.736;2023-09-07T00:37:13;22.25;;;15.23;;
51489;SDS011;57752;53.574;9.736;2023-09-07T00:42:13;22.58;;;14.57;;
51489;SDS011;57752;53.574;9.736;2023-09-07T00:47:13;21.85;;;13.23;;
51489;SDS011;57752;53.574;9.736;2023-09-07T00:52:14;21.60;;;13.98;;
51489;SDS011;57752;53.574;9.736;2023-09-07T00:57:14;21.25;;;13.63;;
51489;SDS011;57752;53.574;9.736;2023-09-07T01:02:14;21.48;;;14.50;;
51489;SDS011;57752;53.574;9.736;2023-09-07T01:07:17;24.52;;;15.80;;
51489;SDS011;57752;53.574;9.736;2023-09-07T01:12:17;21.90;;;14.85;;
51489;SDS011;57752;53.574;9.736;2023-09-07T01:17:18;23.35;;;17.00;;
51489;SDS011;57752;53.574;9.736;2023-09-07T01:22:18;23.93;;;16.83;;
51489;SDS011;57752;53.574;9.736;2023-09-07T01:27:19;30.83;;;19.35;;
51489;SDS011;57752;53.574;9.736;2023-09-07T01:32:20;29.40;;;20.15;;
51489;SDS011;57752;53.574;9.736;2023-09-07T01:37:20;27.27;;;18.08;;
51489;SDS011;57752;53.574;9.736;2023-09-07T01:42:20;30.25;;;19.42;;
51489;SDS011;57752;53.574;9.736;2023-09-07T01:47:21;28.40;;;19.95;;
51489;SDS011;57752;53.574;9.736;2023-09-07T01:52:21;31.17;;;21.58;;
51489;SDS011;57752;53.574;9.736;2023-09-07T01:57:21;34.90;;;21.48;;
51489;SDS011;57752;53.574;9.736;2023-09-07T02:02:22;30.00;;;20.27;;
51489;SDS011;57752;53.574;9.736;2023-09-07T02:07:22;27.05;;;18.42;;
51489;SDS011;57752;53.574;9.736;2023-09-07T02:12:22;25.83;;;18.15;;
51489;SDS011;57752;53.574;9.736;2023-09-07T02:17:22;27.48;;;18.98;;
51489;SDS011;57752;53.574;9.736;2023-09-07T02:22:22;29.17;;;19.07;;
51489;SDS011;57752;53.574;9.736;2023-09-07T02:27:23;29.13;;;19.92;;
51489;SDS011;57752;53.574;9.736;2023-09-07T02:32:23;30.27;;;19.58;;
51489;SDS011;57752;53.574;9.736;2023-09-07T02:37:23;29.10;;;19.95;;
51489;SDS011;57752;53.574;9.736;2023-09-07T02:42:23;28.02;;;18.85;;
51489;SDS011;57752;53.574;9.736;2023-09-07T02:47:24;23.08;;;16.02;;
51489;SDS011;57752;53.574;9.736;2023-09-07T02:52:24;25.60;;;17.25;;
51489;SDS011;57752;53.574;9.736;2023-09-07T02:57:24;22.25;;;15.57;;
51489;SDS011;57752;53.574;9.736;2023-09-07T03:02:25;23.63;;;16.25;;
51489;SDS011;57752;53.574;9.736;2023-09-07T03:07:25;24.38;;;16.10;;
51489;SDS011;57752;53.574;9.736;2023-09-07T03:12:26;30.17;;;18.25;;
51489;SDS011;57752;53.574;9.736;2023-09-07T03:17:26;26.50;;;16.98;;
51489;SDS011;57752;53.574;9.736;2023-09-07T03:22:26;25.77;;;16.95;;
51489;SDS011;57752;53.574;9.736;2023-09-07T03:27:28;29.13;;;17.95;;
51489;SDS011;57752;53.574;9.736;2023-09-07T03:32:28;26.55;;;17.90;;
51489;SDS011;57752;53.574;9.736;2023-09-07T03:37:32;28.08;;;17.85;;
51489;SDS011;57752;53.574;9.736;2023-09-07T03:42:32;29.40;;;18.42;;
51489;SDS011;57752;53.574;9.736;2023-09-07T03:47:32;26.85;;;17.08;;
51489;SDS011;57752;53.574;9.736;2023-09-07T03:52:33;27.83;;;17.55;;
51489;SDS011;57752;53.574;9.736;2023-09-07T03:57:33;25.02;;;16.95;;
51489;SDS011;57752;53.574;9.736;2023-09-07T04:02:33;28.73;;;18.20;;
51489;SDS011;57752;53.574;9.736;2023-09-07T04:07:33;29.52;;;17.90;;
51489;SDS011;57752;53.574;9.736;2023-09-07T04:12:34;26.83;;;16.15;;
51489;SDS011;57752;53.574;9.736;2023-09-07T04:17:34;24.98;;;16.20;;
51489;SDS011;57752;53.574;9.736;2023-09-07T04:22:40;31.92;;;19.75;;
51489;SDS011;57752;53.574;9.736;2023-09-07T04:27:43;29.70;;;18.42;;
51489;SDS011;57752;53.574;9.736;2023-09-07T04:32:43;25.55;;;17.15;;
51489;SDS011;57752;53.574;9.736;2023-09-07T04:37:43;29.02;;;17.65;;
51489;SDS011;57752;53.574;9.736;2023-09-07T04:42:43;28.05;;;18.80;;
51489;SDS011;57752;53.574;9.736;2023-09-07T04:47:43;28.70;;;17.95;;
51489;SDS011;57752;53.574;9.736;2023-09-07T04:52:44;26.27;;;17.10;;
51489;SDS011;57752;53.574;9.736;2023-09-07T04:57:44;26.27;;;16.83;;
51489;SDS011;57752;53.574;9.736;2023-09-07T05:02:44;30.58;;;18.95;;
51489;SDS011;57752;53.574;9.736;2023-09-07T05:07:44;27.30;;;17.90;;
51489;SDS011;57752;53.574;9.736;2023-09-07T05:12:44;26.02;;;16.52;;
51489;SDS011;57752;53.574;9.736;2023-09-07T05:17:45;26.10;;;16.73;;
51489;SDS011;57752;53.574;9.736;2023-09-07T05:22:45;26.80;;;17.13;;
51489;SDS011;57752;53.574;9.736;2023-09-07T05:27:45;32.53;;;18.33;;
51489;SDS011;57752;53.574;9.736;2023-09-07T05:32:45;28.63;;;17.23;;
51489;SDS011;57752;53.574;9.736;2023-09-07T05:37:45;32.65;;;18.70;;
51489;SDS011;57752;53.574;9.736;2023-09-07T05:42:48;31.23;;;19.48;;
51489;SDS011;57752;53.574;9.736;2023-09-07T05:47:48;33.75;;;20.58;;
51489;SDS011;57752;53.574;9.736;2023-09-07T05:52:48;33.78;;;21.20;;
51489;SDS011;57752;53.574;9.736;2023-09-07T05:57:49;36.13;;;22.25;;
51489;SDS011;57752;53.574;9.736;2023-09-07T06:02:49;35.40;;;22.67;;
51489;SDS011;57752;53.574;9.736;2023-09-07T06:07:49;33.65;;;21.20;;
51489;SDS011;57752;53.574;9.736;2023-09-07T06:12:49;35.97;;;22.85;;
51489;SDS011;57752;53.574;9.736;2023-09-07T06:17:49;33.28;;;21.80;;
51489;SDS011;57752;53.574;9.736;2023-09-07T06:22:50;35.15;;;21.95;;
51489;SDS011;57752;53.574;9.736;2023-09-07T06:27:50;31.95;;;20.83;;
51489;SDS011;57752;53.574;9.736;2023-09-07T06:32:50;26.73;;;16.50;;
51489;SDS011;57752;53.574;9.736;2023-09-07T06:37:52;28.17;;;18.00;;
51489;SDS011;57752;53.574;9.736;2023-09-07T06:42:52;22.52;;;15.30;;
51489;SDS011;57752;53.574;9.736;2023-09-07T06:47:53;21.70;;;14.32;;
51489;SDS011;57752;53.574;9.736;2023-09-07T06:52:53;18.27;;;12.48;;
51489;SDS011;57752;53.574;9.736;2023-09-07T06:57:53;19.92;;;12.43;;
51489;SDS011;57752;53.574;9.736;2023-09-07T07:02:54;20.77;;;12.98;;
51489;SDS011;57752;53.574;9.736;2023-09-07T07:07:54;20.13;;;12.43;;
51489;SDS011;57752;53.574;9.736;2023-09-07T07:12:54;18.90;;;11.50;;
51489;SDS011;57752;53.574;9.736;2023-09-07T07:17:54;18.98;;;11.40;;
51489;SDS011;57752;53.574;9.736;2023-09-07T07:22:54;18.63;;;10.88;;
51489;SDS011;57752;53.574;9.736;2023-09-07T07:27:54;17.92;;;10.25;;
51489;SDS011;57752;53.574;9.736;2023-09-07T07:32:55;18.08;;;9.75;;
51489;SDS011;57752;53.574;9.736;2023-09-07T07:37:55;17.60;;;9.82;;
51489;SDS011;57752;53.574;9.736;2023-09-07T07:42:55;17.33;;;10.10;;
51489;SDS011;57752;53.574;9.736;2023-09-07T07:47:55;17.85;;;8.88;;
51489;SDS011;57752;53.574;9.736;2023-09-07T07:52:56;15.45;;;9.13;;
51489;SDS011;57752;53.574;9.736;2023-09-07T07:57:56;21.38;;;8.82;;
51489;SDS011;57752;53.574;9.736;2023-09-07T08:02:56;16.75;;;8.82;;
51489;SDS011;57752;53.574;9.736;2023-09-07T08:07:56;16.40;;;8.50;;
51489;SDS011;57752;53.574;9.736;2023-09-07T08:12:56;18.23;;;9.50;;
51489;SDS011;57752;53.574;9.736;2023-09-07T08:17:56;17.55;;;9.60;;
51489;SDS011;57752;53.574;9.736;2023-09-07T08:22:57;16.50;;;9.50;;
51489;SDS011;57752;53.574;9.736;2023-09-07T08:27:58;15.85;;;8.98;;
51489;SDS011;57752;53.574;9.736;2023-09-07T08:32:59;15.73;;;8.70;;
51489;SDS011;57752;53.574;9.736;2023-09-07T08:38:02;17.95;;;8.63;;
51489;SDS011;57752;53.574;9.736;2023-09-07T08:43:08;16.70;;;7.93;;
51489;SDS011;57752;53.574;9.736;2023-09-07T08:48:10;15.65;;;8.10;;
51489;SDS011;57752;53.574;9.736;2023-09-07T08:53:12;17.95;;;8.38;;
51489;SDS011;57752;53.574;9.736;2023-09-07T08:58:12;18.08;;;7.40;;
51489;SDS011;57752;53.574;9.736;2023-09-07T09:03:13;16.07;;;7.07;;
51489;SDS011;57752;53.574;9.736;2023-09-07T09:08:13;15.35;;;7.55;;
51489;SDS011;57752;53.574;9.736;2023-09-07T09:13:14;17.58;;;7.28;;
51489;SDS011;57752;53.574;9.736;2023-09-07T09:18:14;14.82;;;7.32;;
51489;SDS011;57752;53.574;9.736;2023-09-07T09:23:14;14.35;;;7.00;;
51489;SDS011;57752;53.574;9.736;2023-09-07T09:28:15;16.50;;;7.00;;
51489;SDS011;57752;53.574;9.736;2023-09-07T09:33:15;17.02;;;7.53;;
51489;SDS011;57752;53.574;9.736;2023-09-07T09:38:15;18.48;;;7.43;;
51489;SDS011;57752;53.574;9.736;2023-09-07T09:43:15;13.65;;;7.03;;
51489;SDS011;57752;53.574;9.736;2023-09-07T09:48:15;16.25;;;7.05;;
51489;SDS011;57752;53.574;9.736;2023-09-07T09:53:16;15.13;;;6.80;;
51489;SDS011;57752;53.574;9.736;2023-09-07T09:58:18;16.55;;;7.43;;
51489;SDS011;57752;53.574;9.736;2023-09-07T10:03:23;15.15;;;6.88;;
51489;SDS011;57752;53.574;9.736;2023-09-07T10:08:26;13.13;;;6.93;;
51489;SDS011;57752;53.574;9.736;2023-09-07T10:13:30;16.85;;;7.00;;
51489;SDS011;57752;53.574;9.736;2023-09-07T10:18:34;13.88;;;6.90;;
51489;SDS011;57752;53.574;9.736;2023-09-07T10:23:39;13.68;;;6.25;;
51489;SDS011;57752;53.574;9.736;2023-09-07T10:28:39;13.52;;;6.75;;
51489;SDS011;57752;53.574;9.736;2023-09-07T10:33:40;16.27;;;6.07;;
51489;SDS011;57752;53.574;9.736;2023-09-07T10:38:40;14.50;;;5.83;;
51489;SDS011;57752;53.574;9.736;2023-09-07T10:43:47;11.32;;;5.38;;
51489;SDS011;57752;53.574;9.736;2023-09-07T10:48:51;14.32;;;5.35;;
51489;SDS011;57752;53.574;9.736;2023-09-07T10:53:51;14.35;;;5.93;;
51489;SDS011;57752;53.574;9.736;2023-09-07T10:58:53;12.93;;;5.47;;
51489;SDS011;57752;53.574;9.736;2023-09-07T11:03:53;11.65;;;5.13;;
51489;SDS011;57752;53.574;9.736;2023-09-07T11:08:54;12.13;;;5.10;;
51489;SDS011;57752;53.574;9.736;2023-09-07T11:13:56;11.57;;;4.45;;
51489;SDS011;57752;53.574;9.736;2023-09-07T11:18:56;14.38;;;4.95;;
51489;SDS011;57752;53.574;9.736;2023-09-07T11:23:57;14.88;;;5.18;;
51489;SDS011;57752;53.574;9.736;2023-09-07T11:28:57;11.45;;;5.15;;
51489;SDS011;57752;53.574;9.736;2023-09-07T11:33:57;13.43;;;5.30;;
51489;SDS011;57752;53.574;9.736;2023-09-07T11:38:57;11.85;;;4.85;;
51489;SDS011;57752;53.574;9.736;2023-09-07T11:43:57;12.38;;;4.53;;
51489;SDS011;57752;53.574;9.736;2023-09-07T11:48:57;11.07;;;4.82;;
51489;SDS011;57752;53.574;9.736;2023-09-07T11:53:58;12.23;;;4.80;;
51489;SDS011;57752;53.574;9.736;2023-09-07T11:58:59;12.00;;;4.30;;
51489;SDS011;57752;53.574;9.736;2023-09-07T12:03:59;11.40;;;4.45;;
51489;SDS011;57752;53.574;9.736;2023-09-07T12:09:03;13.60;;;4.80;;
51489;SDS011;57752;53.574;9.736;2023-09-07T12:14:03;14.93;;;4.78;;
51489;SDS011;57752;53.574;9.736;2023-09-07T12:19:05;14.68;;;4.63;;
51489;SDS011;57752;53.574;9.736;2023-09-07T12:24:05;12.48;;;5.35;;
51489;SDS011;57752;53.574;9.736;2023-09-07T12:29:05;11.13;;;5.35;;
51489;SDS011;57752;53.574;9.736;2023-09-07T12:34:07;15.38;;;4.82;;
51489;SDS011;57752;53.574;9.736;2023-09-07T12:39:08;10.13;;;4.60;;
51489;SDS011;57752;53.574;9.736;2023-09-07T12:44:08;12.60;;;4.78;;
51489;SDS011;57752;53.574;9.736;2023-09-07T12:49:08;16.90;;;4.97;;
51489;SDS011;57752;53.574;9.736;2023-09-07T12:54:09;11.45;;;4.32;;
51489;SDS011;57752;53.574;9.736;2023-09-07T12:59:09;14.63;;;4.90;;
51489;SDS011;57752;53.574;9.736;2023-09-07T13:04:09;14.55;;;5.32;;
51489;SDS011;57752;53.574;9.736;2023-09-07T13:09:11;13.13;;;4.70;;
51489;SDS011;57752;53.574;9.736;2023-09-07T13:14:11;12.40;;;4.90;;
51489;SDS011;57752;53.574;9.736;2023-09-07T13:19:12;11.93;;;4.90;;
51489;SDS011;57752;53.574;9.736;2023-09-07T13:24:12;11.77;;;4.57;;
51489;SDS011;57752;53.574;9.736;2023-09-07T13:29:12;10.85;;;4.40;;
51489;SDS011;57752;53.574;9.736;2023-09-07T13:34:12;11.35;;;4.60;;
51489;SDS011;57752;53.574;9.736;2023-09-07T13:39:12;11.70;;;4.70;;
51489;SDS011;57752;53.574;9.736;2023-09-07T13:44:13;11.68;;;4.80;;
51489;SDS011;57752;53.574;9.736;2023-09-07T13:49:14;11.02;;;4.60;;
51489;SDS011;57752;53.574;9.736;2023-09-07T13:54:14;11.83;;;4.33;;
51489;SDS011;57752;53.574;9.736;2023-09-07T13:59:14;13.20;;;4.13;;
51489;SDS011;57752;53.574;9.736;2023-09-07T14:04:14;11.30;;;4.38;;
51489;SDS011;57752;53.574;9.736;2023-09-07T14:09:15;12.73;;;4.70;;
51489;SDS011;57752;53.574;9.736;2023-09-07T14:14:15;14.52;;;4.70;;
51489;SDS011;57752;53.574;9.736;2023-09-07T14:19:16;10.90;;;4.45;;
51489;SDS011;57752;53.574;9.736;2023-09-07T14:24:16;12.38;;;4.57;;
51489;SDS011;57752;53.574;9.736;2023-09-07T14:29:16;13.48;;;4.45;;
51489;SDS011;57752;53.574;9.736;2023-09-07T14:34:17;10.35;;;4.35;;
51489;SDS011;57752;53.574;9.736;2023-09-07T14:39:17;10.57;;;4.07;;
51489;SDS011;57752;53.574;9.736;2023-09-07T14:44:23;12.00;;;4.80;;
51489;SDS011;57752;53.574;9.736;2023-09-07T14:49:23;13.38;;;4.32;;
51489;SDS011;57752;53.574;9.736;2023-09-07T14:54:23;12.37;;;4.33;;
51489;SDS011;57752;53.574;9.736;2023-09-07T14:59:23;11.30;;;4.45;;
51489;SDS011;57752;53.574;9.736;2023-09-07T15:04:23;11.00;;;4.10;;
51489;SDS011;57752;53.574;9.736;2023-09-07T15:09:24;10.60;;;3.90;;
51489;SDS011;57752;53.574;9.736;2023-09-07T15:14:24;10.83;;;4.30;;
51489;SDS011;57752;53.574;9.736;2023-09-07T15:19:25;10.20;;;4.00;;
51489;SDS011;57752;53.574;9.736;2023-09-07T15:24:25;12.40;;;4.28;;
51489;SDS011;57752;53.574;9.736;2023-09-07T15:29:25;13.20;;;4.57;;
51489;SDS011;57752;53.574;9.736;2023-09-07T15:34:25;10.95;;;4.30;;
51489;SDS011;57752;53.574;9.736;2023-09-07T15:39:25;11.27;;;4.68;;
51489;SDS011;57752;53.574;9.736;2023-09-07T15:44:26;12.25;;;4.10;;
51489;SDS011;57752;53.574;9.736;2023-09-07T15:49:28;13.65;;;4.60;;
51489;SDS011;57752;53.574;9.736;2023-09-07T15:54:28;11.30;;;4.15;;
51489;SDS011;57752;53.574;9.736;2023-09-07T15:59:29;15.23;;;4.60;;
51489;SDS011;57752;53.574;9.736;2023-09-07T16:04:29;11.17;;;4.30;;
51489;SDS011;57752;53.574;9.736;2023-09-07T16:09:29;11.82;;;4.63;;
51489;SDS011;57752;53.574;9.736;2023-09-07T16:14:29;9.83;;;4.40;;
51489;SDS011;57752;53.574;9.736;2023-09-07T16:19:30;11.52;;;4.60;;
51489;SDS011;57752;53.574;9.736;2023-09-07T16:24:30;12.73;;;4.65;;
51489;SDS011;57752;53.574;9.736;2023-09-07T16:29:30;13.70;;;4.80;;
51489;SDS011;57752;53.574;9.736;2023-09-07T16:34:30;12.05;;;4.53;;
51489;SDS011;57752;53.574;9.736;2023-09-07T16:39:31;11.53;;;4.97;;
51489;SDS011;57752;53.574;9.736;2023-09-07T16:44:33;11.60;;;4.63;;
51489;SDS011;57752;53.574;9.736;2023-09-07T16:49:33;12.30;;;4.70;;
51489;SDS011;57752;53.574;9.736;2023-09-07T16:54:33;12.75;;;5.00;;
51489;SDS011;57752;53.574;9.736;2023-09-07T16:59:34;12.10;;;4.68;;
51489;SDS011;57752;53.574;9.736;2023-09-07T17:04:34;11.32;;;5.25;;
51489;SDS011;57752;53.574;9.736;2023-09-07T17:09:38;11.98;;;5.40;;
51489;SDS011;57752;53.574;9.736;2023-09-07T17:14:38;11.80;;;4.90;;
51489;SDS011;57752;53.574;9.736;2023-09-07T17:19:39;14.05;;;5.03;;
51489;SDS011;57752;53.574;9.736;2023-09-07T17:24:39;10.82;;;4.90;;
51489;SDS011;57752;53.574;9.736;2023-09-07T17:29:39;11.45;;;5.15;;
51489;SDS011;57752;53.574;9.736;2023-09-07T17:34:39;12.43;;;5.10;;
51489;SDS011;57752;53.574;9.736;2023-09-07T17:39:40;12.50;;;5.32;;
51489;SDS011;57752;53.574;9.736;2023-09-07T17:44:40;14.63;;;5.38;;
51489;SDS011;57752;53.574;9.736;2023-09-07T17:49:42;12.65;;;5.40;;
51489;SDS011;57752;53.574;9.736;2023-09-07T17:54:42;12.80;;;5.30;;
51489;SDS011;57752;53.574;9.736;2023-09-07T17:59:42;11.73;;;5.63;;
51489;SDS011;57752;53.574;9.736;2023-09-07T18:04:42;12.60;;;6.05;;
51489;SDS011;57752;53.574;9.736;2023-09-07T18:09:43;12.40;;;5.80;;
51489;SDS011;57752;53.574;9.736;2023-09-07T18:14:43;13.38;;;6.03;;
51489;SDS011;57752;53.574;9.736;2023-09-07T18:19:43;13.80;;;6.15;;
51489;SDS011;57752;53.574;9.736;2023-09-07T18:24:43;13.10;;;6.28;;
51489;SDS011;57752;53.574;9.736;2023-09-07T18:29:43;13.32;;;6.38;;
51489;SDS011;57752;53.574;9.736;2023-09-07T18:34:43;14.50;;;6.32;;
51489;SDS011;57752;53.574;9.736;2023-09-07T18:39:44;14.07;;;6.63;;
51489;SDS011;57752;53.574;9.736;2023-09-07T18:44:44;15.07;;;6.60;;
51489;SDS011;57752;53.574;9.736;2023-09-07T18:49:44;15.77;;;7.22;;
51489;SDS011;57752;53.574;9.736;2023-09-07T18:54:46;13.43;;;7.37;;
51489;SDS011;57752;53.574;9.736;2023-09-07T18:59:46;14.35;;;7.00;;
51489;SDS011;57752;53.574;9.736;2023-09-07T19:04:46;15.13;;;7.20;;
51489;SDS011;57752;53.574;9.736;2023-09-07T19:09:48;13.57;;;7.18;;
51489;SDS011;57752;53.574;9.736;2023-09-07T19:14:49;14.98;;;7.97;;
51489;SDS011;57752;53.574;9.736;2023-09-07T19:19:49;16.95;;;8.23;;
51489;SDS011;57752;53.574;9.736;2023-09-07T19:24:49;14.37;;;7.70;;
51489;SDS011;57752;53.574;9.736;2023-09-07T19:29:49;18.58;;;8.35;;
51489;SDS011;57752;53.574;9.736;2023-09-07T19:34:50;15.15;;;7.68;;
51489;SDS011;57752;53.574;9.736;2023-09-07T19:39:50;15.45;;;8.43;;
51489;SDS011;57752;53.574;9.736;2023-09-07T19:44:51;18.80;;;8.75;;
51489;SDS011;57752;53.574;9.736;2023-09-07T19:49:51;15.02;;;8.68;;
51489;SDS011;57752;53.574;9.736;2023-09-07T19:54:51;17.02;;;8.48;;
51489;SDS011;57752;53.574;9.736;2023-09-07T19:59:51;19.10;;;9.20;;
51489;SDS011;57752;53.574;9.736;2023-09-07T20:04:52;16.92;;;9.05;;
51489;SDS011;57752;53.574;9.736;2023-09-07T20:09:52;17.50;;;9.38;;
51489;SDS011;57752;53.574;9.736;2023-09-07T20:14:52;20.23;;;10.38;;
51489;SDS011;57752;53.574;9.736;2023-09-07T20:19:53;21.30;;;10.23;;
51489;SDS011;57752;53.574;9.736;2023-09-07T20:24:54;19.38;;;11.02;;
51489;SDS011;57752;53.574;9.736;2023-09-07T20:29:55;19.02;;;10.10;;
51489;SDS011;57752;53.574;9.736;2023-09-07T20:34:55;21.33;;;12.07;;
51489;SDS011;57752;53.574;9.736;2023-09-07T20:39:55;19.35;;;11.57;;
51489;SDS011;57752;53.574;9.736;2023-09-07T20:44:56;20.58;;;11.93;;
51489;SDS011;57752;53.574;9.736;2023-09-07T20:49:56;19.25;;;11.52;;
51489;SDS011;57752;53.574;9.736;2023-09-07T20:54:57;20.05;;;11.77;;
51489;SDS011;57752;53.574;9.736;2023-09-07T20:59:59;20.73;;;12.00;;
51489;SDS011;57752;53.574;9.736;2023-09-07T21:04:59;24.15;;;13.52;;
51489;SDS011;57752;53.574;9.736;2023-09-07T21:10:00;23.25;;;13.40;;
51489;SDS011;57752;53.574;9.736;2023-09-07T21:15:00;23.08;;;13.85;;
51489;SDS011;57752;53.574;9.736;2023-09-07T21:20:00;23.23;;;12.82;;
51489;SDS011;57752;53.574;9.736;2023-09-07T21:25:00;20.35;;;12.50;;
51489;SDS011;57752;53.574;9.736;2023-09-07T21:30:02;21.92;;;13.35;;
51489;SDS011;57752;53.574;9.736;2023-09-07T21:35:02;25.63;;;13.93;;
51489;SDS011;57752;53.574;9.736;2023-09-07T21:40:03;22.08;;;12.80;;
51489;SDS011;57752;53.574;9.736;2023-09-07T21:45:04;21.67;;;13.60;;
51489;SDS011;57752;53.574;9.736;2023-09-07T21:50:04;21.55;;;13.85;;
51489;SDS011;57752;53.574;9.736;2023-09-07T21:55:04;23.47;;;14.53;;
51489;SDS011;57752;53.574;9.736;2023-09-07T22:00:05;25.85;;;15.05;;
51489;SDS011;57752;53.574;9.736;2023-09-07T22:05:11;25.25;;;15.90;;
51489;SDS011;57752;53.574;9.736;2023-09-07T22:10:11;26.60;;;15.35;;
51489;SDS011;57752;53.574;9.736;2023-09-07T22:15:11;24.05;;;15.23;;
51489;SDS011;57752;53.574;9.736;2023-09-07T22:20:11;23.52;;;14.82;;
51489;SDS011;57752;53.574;9.736;2023-09-07T22:25:11;26.67;;;16.10;;
51489;SDS011;57752;53.574;9.736;2023-09-07T22:30:12;26.35;;;16.40;;
51489;SDS011;57752;53.574;9.736;2023-09-07T22:35:12;23.60;;;15.35;;
51489;SDS011;57752;53.574;9.736;2023-09-07T22:40:12;23.92;;;15.25;;
51489;SDS011;57752;53.574;9.736;2023-09-07T22:45:15;26.15;;;15.85;;
51489;SDS011;57752;53.574;9.736;2023-09-07T22:50:15;24.42;;;16.10;;
51489;SDS011;57752;53.574;9.736;2023-09-07T22:55:36;27.25;;;15.63;;
51489;SDS011;57752;53.574;9.736;2023-09-07T23:00:37;28.60;;;16.55;;
51489;SDS011;57752;53.574;9.736;2023-09-07T23:05:38;26.02;;;17.00;;
51489;SDS011;57752;53.574;9.736;2023-09-07T23:10:38;24.30;;;15.40;;
51489;SDS011;57752;53.574;9.736;2023-09-07T23:15:38;24.48;;;15.77;;
51489;SDS011;57752;53.574;9.736;2023-09-07T23:20:39;22.67;;;13.25;;
51489;SDS011;57752;53.574;9.736;2023-09-07T23:25:39;20.63;;;12.13;;
51489;SDS011;57752;53.574;9.736;2023-09-07T23:30:39;18.67;;;10.57;;
51489;SDS011;57752;53.574;9.736;2023-09-07T23:35:40;15.73;;;8.98;;
51489;SDS011;57752;53.574;9.736;2023-09-07T23:40:40;16.25;;;8.57;;
51489;SDS011;57752;53.574;9.736;2023-09-07T23:45:40;18.42;;;8.25;;
51489;SDS011;57752;53.574;9.736;2023-09-07T23:50:40;14.90;;;8.10;;
51489;SDS011;57752;53.574;9.736;2023-09-07T23:55:40;16.83;;;8.65;;
